Latest METARs, TAFs and NOTAMs for SKCG


---------------------------------------------------------------------------
	(OBSERVATIONS)
SKCG 211400Z 13005KT 9999 FEW020 BKN120 28/26 A2990 METAR SKBQ
    211400Z VRB02KT 7000 VCFG SCT010 BKN200 28/26 A2990=
SKCG 211300Z 12004KT 080V150 9999 FEW020 BKN100 27/26 A2989 METAR
    SKBQ 211300Z 13005KT 4000 BR BKN010 27/26 A2992 RMK AD OPER
    IMC=
SKCG 211200Z 10005KT 070V150 9999 FEW018 BKN090 27/25 A2987 METAR
    SKBQ 211200Z NIL=
---------------------------------------------------------------------------
	(TERMINAL AREA FORECAST)
SKCG 211100Z 2112/2212 VRB02KT 9999 SCT020 SCT100
    BECMG 2115/2116 29012KT
    TEMPO 2204/2209 7000 TSRA SCT017CB
    TX33/2118Z TN26/2211Z=
---------------------------------------------------------------------------
	(NOTAMS)


SKCG A0542/17 FIRE FIGHTING AND RESCUE CHG TO CAT 8. TUE, THU,
    SAT BTN 2100-2359 WED, FRI, SUN, BTN 0000-0015, 28 MAR 21:00
    2017 UNTIL PERM. CREATED: 23 FEB 19:57 2017

SKCG A1774/17 RWY 01/19 CLSD. DLY BTN 0615-1030, 25 AUG 06:15
    2017 UNTIL 25 FEB 10:30 2018. CREATED: 24 JUN 16:50 2017

SKCG A1829/17 STRIP PRESENCE OF MACHINERY HGT 4M DIST 210M THR
    01, EXER CTN. DLY BTN 1300-2200, 05 JUL 13:00 2017 UNTIL
    05 OCT 22:00 2017. CREATED: 01 JUL 07:11 2017

SKCG A2134/17 STRIP RWY 01/19 WIP, EXER CTN. H24, 02 AUG 19:20
    2017 UNTIL 31 DEC 23:59 2017. CREATED: 02 AUG 19:18 2017

SKCG A2178/17 IAP RNAV (GNSS) RWY 19 NO AVBL. H24, 08 AUG 12:11
    2017 UNTIL 31 AUG 23:59 2017. CREATED: 08 AUG 12:12 2017

SKCG A2180/17 IAP VOR RWY 01, CIRCULAR RWY 19, PPR ATS IAP RNAV
    (GNSS) RWY 01, CIRCULAR RWY 19, PPR ATS. HN, 08 AUG 23:00
    2017 UNTIL 31 AUG 11:00 2017. CREATED: 08 AUG 14:42 2017

SKCG A2181/17 TEMPO, NXT SID CHG PDG A 7.5? TIL REACH 400FT,
    AFTER CONT WITH PDG PUBLISH: AD2-SKCG-SID 1 IRAX1A RWY 01
    AD2-SKCG-SID 2 KOPG1A RWY 01 AD2-SKCG-SID 3 BAQ2A, CTG1D
    RWY 01 AD2-SKCG-SID 4 VARO1A RWY 01 AD2-SKCG-SID 5 UGSO1C
    RWY 01 AD2-SKCG-SID 6 BUTA1B RWY 01 KTS 90 120 150 180 220
    250 PDG 7.5? 690 920 1140 1370 1680 1900. 08 AUG 14:51 2017
    UNTIL 31 AUG 23:59 2017. CREATED: 08 AUG 14:57 2017

SKCG A2182/17 TEMPO, IS MODIFIED MNM VIS RWY 01 THUS: MNM STD
    TKOF RWY 01 THUS: ACFT ONE, TWO, THREE O MORE ENG 2900 M
    VIS. TKOF MANOEUVRE MNM LOWER TO STD RWY 01: 2900 M VIS.
    H24, 08 AUG 15:24 2017 UNTIL 31 AUG 23:59 2017. CREATED:
    08 AUG 15:24 2017

SKCG A2229/17 AD LTD, AIR OPS RESTRICTED AUTH ONLY PRESIDENCY
    OPS. BTN 1400-1500 Y 2200-2330, 10 SEP 14:00 2017 UNTIL 10
    SEP 23:30 2017. CREATED: 13 AUG 23:22 2017

SKCG A2254/17 RWY 01/19 AVBL ONLY TKOF. DLY BTN 1030-1115, 30
    SEP 10:30 2017 UNTIL 30 MAR 11:15 2018. CREATED: 16 AUG 18:58
    2017

SKCG A2265/17 OBST INSTL NXT COORD: P1: 102720.51N0753041.08W
    HGT 20 M P2: 102721.23N0753040.95W HGT 20 M P3: 102720.24N0753041.36W
    HGT 20 M P4: 102720.58N0753041.67W HGT 20 M. 18 AUG 03:17
    2017 UNTIL 31 AUG 05:00 2017. CREATED: 18 AUG 03:18 2017

SKCG A2294/17 FIRE FIGHTING AND RESCUE DOWNGRADED CAT 6. 1200-1800,
    23 AUG 12:00 2017 UNTIL 23 AUG 18:00 2017. CREATED: 21 AUG
    12:23 2017

SKCG A2997/09 FIRE FIGHTING AND RESCUE DOWNGRADED TO CAT 7 09
    DEC 20:30 UNTIL 10 DEC 23:00 ESTIMATED

SKCG C2893/17 TEMPO, IS MODIFIED MNM VIS RWY 01 THUS: MNM STD
    TKOF RWY 01 THUS: ACFT ONE, TWO, THREE O MORE ENG 2900 M
    VIS. TKOF MANOEUVRE MNM LOWER TO STD RWY 01: 2900 M VIS.
    H24, 08 AUG 14:59 2017 UNTIL 31 AUG 23:59 2017. CREATED:
    08 AUG 15:06 2017

---------------------------------------------------------------------------